createdAt,value
2023-05-25T00:02:06.926Z,49.90
2023-05-25T00:04:54.594Z,49.90
2023-05-25T00:07:42.352Z,49.80
2023-05-25T00:10:30.143Z,49.90
2023-05-25T00:13:18.166Z,49.90
2023-05-25T00:16:08.258Z,49.90
2023-05-25T00:18:57.388Z,49.80
2023-05-25T00:21:48.187Z,49.80
2023-05-25T00:24:36.061Z,49.70
2023-05-25T00:27:24.553Z,49.70
2023-05-25T00:30:13.206Z,49.70
2023-05-25T00:33:02.941Z,49.70
2023-05-25T00:35:52.592Z,49.80
2023-05-25T00:38:40.641Z,49.70
2023-05-25T00:41:28.181Z,49.70
2023-05-25T00:44:21.370Z,49.70
2023-05-25T00:47:09.206Z,49.60
2023-05-25T00:49:58.279Z,49.70
2023-05-25T00:52:46.250Z,49.60
2023-05-25T00:55:34.667Z,49.60
2023-05-25T00:58:23.340Z,49.60
2023-05-25T01:01:12.823Z,49.60
2023-05-25T01:04:00.935Z,49.60
2023-05-25T01:06:50.573Z,49.50
2023-05-25T01:09:40.853Z,49.50
2023-05-25T01:12:28.834Z,49.50
2023-05-25T01:15:16.694Z,49.50
2023-05-25T01:18:05.753Z,49.40
2023-05-25T01:21:02.117Z,49.40
2023-05-25T01:23:54.077Z,49.40
2023-05-25T01:26:45.441Z,49.40
2023-05-25T01:29:33.009Z,49.40
2023-05-25T01:32:21.143Z,49.40
2023-05-25T01:35:09.699Z,49.30
2023-05-25T01:37:59.565Z,49.30
2023-05-25T01:40:47.080Z,49.30
2023-05-25T01:43:34.957Z,49.20
2023-05-25T01:46:25.736Z,49.20
2023-05-25T01:49:20.444Z,49.20
2023-05-25T01:52:11.219Z,49.20
2023-05-25T01:55:03.188Z,49.10
2023-05-25T01:57:51.521Z,49.10
2023-05-25T02:00:39.070Z,49.10
2023-05-25T02:03:27.457Z,49.00
2023-05-25T02:06:16.344Z,49.00
2023-05-25T02:09:04.461Z,49.00
2023-05-25T02:11:53.699Z,48.90
2023-05-25T02:14:41.568Z,48.90
2023-05-25T02:17:30.178Z,48.80
2023-05-25T02:20:17.986Z,48.80
2023-05-25T02:23:05.983Z,48.80
2023-05-25T02:25:53.843Z,48.80
2023-05-25T02:28:46.710Z,48.80
2023-05-25T02:31:34.326Z,48.70
2023-05-25T02:34:22.562Z,48.70
2023-05-25T02:37:10.108Z,48.60
2023-05-25T02:39:57.922Z,48.60
2023-05-25T02:42:46.177Z,49.20
2023-05-25T02:45:35.373Z,49.20
2023-05-25T02:48:23.212Z,48.60
2023-05-25T02:51:11.210Z,48.60
2023-05-25T02:53:58.866Z,48.60
2023-05-25T02:56:47.238Z,48.50
2023-05-25T02:59:38.030Z,48.50
2023-05-25T03:02:27.164Z,48.50
2023-05-25T03:05:14.987Z,48.40
2023-05-25T03:08:02.977Z,48.50
2023-05-25T03:10:51.669Z,48.40
2023-05-25T03:13:39.474Z,48.30
2023-05-25T03:16:27.196Z,48.40
2023-05-25T03:19:16.400Z,48.30
2023-05-25T03:22:04.525Z,48.30
2023-05-25T03:24:53.719Z,48.30
2023-05-25T03:27:41.553Z,48.20
2023-05-25T03:30:29.777Z,48.20
2023-05-25T03:33:18.227Z,48.20
2023-05-25T03:36:12.407Z,48.20
2023-05-25T03:39:00.095Z,48.10
2023-05-25T03:41:48.194Z,48.10
2023-05-25T03:44:36.225Z,48.10
2023-05-25T03:47:24.106Z,48.10
2023-05-25T03:50:12.696Z,48.00
2023-05-25T03:53:02.039Z,48.00
2023-05-25T03:55:51.928Z,48.00
2023-05-25T03:58:39.834Z,48.00
2023-05-25T04:01:30.051Z,47.90
2023-05-25T04:04:17.824Z,47.90
2023-05-25T04:07:05.764Z,47.90
2023-05-25T04:09:54.905Z,47.80
2023-05-25T04:12:42.490Z,47.80
2023-05-25T04:15:30.684Z,47.80
2023-05-25T04:18:25.647Z,48.00
2023-05-25T04:21:13.350Z,47.70
2023-05-25T04:24:03.343Z,47.80
2023-05-25T04:26:52.680Z,47.70
2023-05-25T04:29:40.182Z,47.70
2023-05-25T04:32:57.668Z,47.70
2023-05-25T04:36:11.000Z,47.70
2023-05-25T04:39:02.710Z,47.90
2023-05-25T04:41:53.301Z,47.60
2023-05-25T04:44:41.300Z,47.60
2023-05-25T04:47:31.005Z,47.60
2023-05-25T04:50:19.189Z,47.60
2023-05-25T04:53:07.810Z,47.50
2023-05-25T04:55:56.276Z,47.50
2023-05-25T04:58:46.616Z,47.50
2023-05-25T05:01:40.866Z,47.50
2023-05-25T05:04:30.479Z,47.50
2023-05-25T05:07:18.612Z,47.50
2023-05-25T05:10:07.563Z,47.40
2023-05-25T05:12:57.791Z,47.50
2023-05-25T05:15:46.933Z,47.40
2023-05-25T05:18:34.831Z,47.40
2023-05-25T05:21:23.540Z,47.40
2023-05-25T05:24:11.468Z,47.50
2023-05-25T05:26:59.564Z,47.50
2023-05-25T05:30:13.646Z,47.60
2023-05-25T05:33:03.218Z,47.60
2023-05-25T05:35:56.503Z,47.70
2023-05-25T05:38:46.719Z,47.70
2023-05-25T05:41:35.971Z,47.90
2023-05-25T05:44:26.929Z,48.00
2023-05-25T05:47:16.880Z,48.20
2023-05-25T05:50:07.251Z,48.30
2023-05-25T05:52:56.785Z,48.30
2023-05-25T05:55:44.647Z,48.40
2023-05-25T05:58:33.289Z,48.50
2023-05-25T06:01:21.929Z,48.50
2023-05-25T06:04:10.046Z,48.20
2023-05-25T06:06:59.334Z,48.20
2023-05-25T06:09:47.224Z,48.30
2023-05-25T06:12:35.018Z,48.20
2023-05-25T06:15:22.924Z,48.20
2023-05-25T06:18:12.988Z,48.20
2023-05-25T06:21:01.889Z,48.20
2023-05-25T06:23:51.418Z,48.20
2023-05-25T06:26:40.071Z,48.20
2023-05-25T06:29:29.062Z,48.20
2023-05-25T06:32:16.795Z,48.20
2023-05-25T06:35:05.349Z,48.10
2023-05-25T06:37:53.526Z,48.00
2023-05-25T06:40:43.135Z,48.00
2023-05-25T06:43:32.082Z,48.00
2023-05-25T06:46:37.376Z,48.00
2023-05-25T06:49:25.173Z,48.00
2023-05-25T06:52:12.792Z,48.00
2023-05-25T06:55:00.904Z,47.90
2023-05-25T06:57:51.021Z,47.90
2023-05-25T07:00:38.846Z,47.90
2023-05-25T07:03:26.848Z,47.90
2023-05-25T07:06:15.253Z,47.90
2023-05-25T07:09:02.884Z,47.80
2023-05-25T07:11:50.776Z,47.80
2023-05-25T07:14:40.088Z,47.80
2023-05-25T07:17:28.641Z,47.70
2023-05-25T07:20:16.753Z,47.70
2023-05-25T07:23:04.404Z,47.70
2023-05-25T07:25:52.351Z,47.70
2023-05-25T07:28:39.899Z,47.70
2023-05-25T07:31:29.258Z,47.70
2023-05-25T07:34:17.073Z,47.60
2023-05-25T07:37:05.056Z,47.60
2023-05-25T07:39:52.680Z,47.60
2023-05-25T07:42:40.665Z,47.60
2023-05-25T07:45:28.517Z,47.50
2023-05-25T07:48:17.986Z,47.60
2023-05-25T07:51:06.040Z,47.50
2023-05-25T07:53:56.436Z,47.60
2023-05-25T07:56:44.064Z,47.60
2023-05-25T07:59:31.859Z,47.50
2023-05-25T08:02:19.735Z,47.50
2023-05-25T08:05:10.034Z,47.50
2023-05-25T08:07:57.991Z,47.50
2023-05-25T08:10:46.033Z,47.40
2023-05-25T08:13:33.560Z,47.40
2023-05-25T08:16:21.519Z,47.40
2023-05-25T08:19:09.596Z,47.40
2023-05-25T08:21:58.472Z,47.30
2023-05-25T08:24:47.348Z,47.30
2023-05-25T08:27:36.645Z,47.30
2023-05-25T08:30:24.650Z,47.30
2023-05-25T08:33:12.952Z,47.20
2023-05-25T08:36:00.923Z,47.10
2023-05-25T08:38:49.997Z,47.10
2023-05-25T08:41:38.133Z,47.10
2023-05-25T08:44:25.849Z,47.10
2023-05-25T08:47:15.302Z,47.10
2023-05-25T08:50:04.076Z,47.10
2023-05-25T08:52:51.967Z,47.00
2023-05-25T08:55:41.224Z,47.00
2023-05-25T08:58:31.928Z,47.00
2023-05-25T09:01:20.021Z,46.90
2023-05-25T09:04:07.920Z,46.90
2023-05-25T09:07:06.276Z,46.90
2023-05-25T09:09:57.867Z,46.80
2023-05-25T09:12:48.054Z,46.80
2023-05-25T09:15:35.834Z,46.80
2023-05-25T09:18:23.579Z,46.80
2023-05-25T09:21:11.585Z,46.70
2023-05-25T09:23:59.850Z,46.70
2023-05-25T09:26:49.441Z,46.70
2023-05-25T09:29:38.806Z,46.70
2023-05-25T09:32:26.842Z,46.70
2023-05-25T09:35:15.553Z,46.60
2023-05-25T09:38:04.149Z,46.60
2023-05-25T09:40:52.226Z,46.50
2023-05-25T09:43:44.943Z,46.50
2023-05-25T09:46:44.809Z,46.50
2023-05-25T09:49:32.761Z,46.50
2023-05-25T09:52:20.626Z,46.40
2023-05-25T09:55:11.903Z,46.40
2023-05-25T09:57:59.759Z,46.40
2023-05-25T10:00:47.839Z,46.30
2023-05-25T10:03:38.797Z,46.30
2023-05-25T10:06:27.644Z,46.30
2023-05-25T10:09:16.588Z,46.30
2023-05-25T10:12:04.580Z,46.20
2023-05-25T10:14:54.186Z,46.10
2023-05-25T10:17:55.671Z,46.10
2023-05-25T10:20:45.271Z,46.10
2023-05-25T10:23:37.034Z,46.10
2023-05-25T10:26:27.359Z,46.00
2023-05-25T10:29:14.965Z,46.00
2023-05-25T10:32:04.234Z,46.00
2023-05-25T10:34:52.786Z,46.00
2023-05-25T10:37:41.894Z,45.90
2023-05-25T10:40:29.435Z,45.80
2023-05-25T10:43:17.328Z,45.80
2023-05-25T10:46:05.891Z,45.80
2023-05-25T10:48:53.624Z,45.80
2023-05-25T10:51:41.868Z,45.70
2023-05-25T10:54:36.178Z,45.70
2023-05-25T10:57:24.914Z,45.70
2023-05-25T11:00:13.705Z,45.60
2023-05-25T11:03:01.648Z,45.60
2023-05-25T11:05:51.985Z,45.60
2023-05-25T11:08:49.793Z,45.50
2023-05-25T11:12:04.380Z,45.50
2023-05-25T11:15:11.768Z,45.50
2023-05-25T11:18:01.364Z,45.50
2023-05-25T11:20:49.533Z,45.30
2023-05-25T11:23:40.489Z,45.40
2023-05-25T11:26:31.006Z,45.30
2023-05-25T11:29:20.299Z,45.30
2023-05-25T11:32:14.133Z,45.30
2023-05-25T11:35:01.689Z,45.30
2023-05-25T11:37:53.680Z,45.30
2023-05-25T11:40:41.677Z,45.30
2023-05-25T11:43:29.647Z,45.30
2023-05-25T11:46:19.815Z,45.20
2023-05-25T11:49:07.775Z,45.20
2023-05-25T11:51:56.061Z,45.20
2023-05-25T11:54:43.791Z,45.10
2023-05-25T11:57:31.554Z,45.10
2023-05-25T12:00:26.872Z,45.10
2023-05-25T12:06:08.364Z,45.10
2023-05-25T12:08:56.264Z,45.10
2023-05-25T12:11:45.701Z,45.00
2023-05-25T12:14:36.161Z,45.00
2023-05-25T12:17:24.117Z,44.90
2023-05-25T12:20:12.592Z,44.90
2023-05-25T12:23:01.800Z,44.90
2023-05-25T12:25:51.532Z,44.90
2023-05-25T12:28:39.651Z,44.90
2023-05-25T12:31:28.228Z,44.80
2023-05-25T12:34:16.553Z,44.80
2023-05-25T12:37:04.501Z,44.80
2023-05-25T12:39:53.426Z,44.60
2023-05-25T12:42:41.182Z,44.50
2023-05-25T12:45:29.140Z,44.60
2023-05-25T12:48:17.096Z,44.60
2023-05-25T12:51:05.749Z,44.60
2023-05-25T12:53:54.326Z,44.50
2023-05-25T12:56:56.825Z,44.50
2023-05-25T12:59:44.953Z,44.50
2023-05-25T13:02:32.792Z,44.50
2023-05-25T13:05:24.100Z,44.50
2023-05-25T13:08:11.843Z,44.50
2023-05-25T13:11:00.216Z,44.50
2023-05-25T13:13:49.564Z,44.50
2023-05-25T13:16:37.574Z,43.60
2023-05-25T13:19:26.266Z,42.30
2023-05-25T13:22:13.786Z,42.00
2023-05-25T13:25:01.899Z,41.50
2023-05-25T13:27:50.815Z,41.70
2023-05-25T13:30:40.245Z,41.60
2023-05-25T13:33:28.556Z,41.70
2023-05-25T13:36:16.150Z,41.70
2023-05-25T13:39:05.305Z,41.60
2023-05-25T13:41:53.219Z,41.40
2023-05-25T13:44:41.055Z,41.40
2023-05-25T13:47:30.682Z,41.40
2023-05-25T13:50:18.754Z,41.30
2023-05-25T13:53:06.877Z,41.40
2023-05-25T13:55:54.865Z,41.50
2023-05-25T13:58:43.022Z,41.60
2023-05-25T14:01:32.498Z,41.60
2023-05-25T14:04:21.622Z,41.50
2023-05-25T14:07:09.218Z,41.50
2023-05-25T14:09:58.218Z,41.70
2023-05-25T14:12:47.149Z,41.70
2023-05-25T14:15:35.054Z,41.70
2023-05-25T14:18:23.037Z,41.70
2023-05-25T14:21:13.144Z,41.80
2023-05-25T14:24:00.900Z,41.80
2023-05-25T14:26:48.632Z,41.90
2023-05-25T14:29:36.476Z,42.00
2023-05-25T14:32:24.627Z,42.00
2023-05-25T14:35:12.565Z,42.00
2023-05-25T14:38:01.949Z,41.80
2023-05-25T14:40:49.734Z,41.70
2023-05-25T14:43:37.565Z,41.70
2023-05-25T14:46:25.465Z,41.80
2023-05-25T14:49:13.604Z,41.70
2023-05-25T14:52:01.133Z,41.70
2023-05-25T14:54:50.594Z,41.60
2023-05-25T14:57:38.702Z,41.70
2023-05-25T15:00:26.304Z,41.80
2023-05-25T15:03:14.366Z,41.70
2023-05-25T15:06:02.244Z,41.70
2023-05-25T15:08:50.036Z,41.70
2023-05-25T15:11:39.101Z,41.70
2023-05-25T15:14:27.035Z,41.60
2023-05-25T15:17:14.913Z,41.50
2023-05-25T15:20:03.209Z,41.50
2023-05-25T15:22:53.699Z,41.20
2023-05-25T15:25:41.227Z,41.10
2023-05-25T15:28:30.370Z,41.20
2023-05-25T15:31:18.471Z,41.30
2023-05-25T15:34:06.409Z,41.40
2023-05-25T15:36:54.232Z,41.50
2023-05-25T15:39:42.145Z,41.50
2023-05-25T15:42:30.054Z,41.40
2023-05-25T15:45:19.424Z,41.10
2023-05-25T15:48:10.068Z,41.10
2023-05-25T15:50:58.002Z,41.10
2023-05-25T15:53:45.739Z,40.90
2023-05-25T15:56:34.000Z,41.00
2023-05-25T15:59:21.681Z,41.10
2023-05-25T16:02:11.064Z,41.10
2023-05-25T16:04:58.879Z,41.10
2023-05-25T16:07:46.840Z,41.10
2023-05-25T16:10:34.856Z,41.10
2023-05-25T16:13:22.666Z,41.10
2023-05-25T16:16:10.713Z,41.10
2023-05-25T16:18:59.823Z,41.20
2023-05-25T16:21:48.044Z,41.90
2023-05-25T16:24:36.125Z,41.30
2023-05-25T16:27:24.430Z,41.20
2023-05-25T16:30:13.551Z,41.40
2023-05-25T16:33:01.785Z,41.50
2023-05-25T16:35:53.628Z,41.30
2023-05-25T16:38:41.619Z,41.10
2023-05-25T16:41:29.302Z,40.80
2023-05-25T16:44:17.366Z,40.90
2023-05-25T16:47:05.626Z,40.90
2023-05-25T16:49:53.456Z,40.80
2023-05-25T16:52:42.472Z,40.90
2023-05-25T16:55:30.842Z,41.10
2023-05-25T16:58:18.537Z,41.30
2023-05-25T17:01:06.767Z,41.60
2023-05-25T17:03:55.153Z,42.40
2023-05-25T17:06:43.120Z,42.10
2023-05-25T17:09:32.765Z,42.20
2023-05-25T17:12:20.803Z,42.30
2023-05-25T17:15:11.138Z,42.40
2023-05-25T17:17:59.040Z,42.30
2023-05-25T17:20:47.056Z,41.80
2023-05-25T17:23:35.068Z,41.00
2023-05-25T17:26:24.362Z,40.50
2023-05-25T17:29:12.399Z,40.00
2023-05-25T17:32:00.350Z,39.70
2023-05-25T17:34:48.545Z,39.50
2023-05-25T17:37:36.215Z,39.50
2023-05-25T17:40:23.843Z,39.80
2023-05-25T17:43:13.060Z,40.00
2023-05-25T17:46:00.851Z,40.10
2023-05-25T17:48:48.758Z,40.20
2023-05-25T17:51:37.477Z,40.30
2023-05-25T17:54:27.234Z,40.40
2023-05-25T17:57:15.175Z,40.50
2023-05-25T18:00:04.330Z,40.50
2023-05-25T18:03:00.138Z,40.70
2023-05-25T18:05:47.736Z,40.70
2023-05-25T18:08:35.848Z,40.80
2023-05-25T18:11:24.219Z,40.90
2023-05-25T18:14:11.868Z,40.90
2023-05-25T18:17:01.291Z,41.00
2023-05-25T18:19:49.072Z,41.00
2023-05-25T18:22:36.987Z,41.10
2023-05-25T18:25:24.582Z,41.10
2023-05-25T18:28:14.777Z,41.20
2023-05-25T18:31:02.618Z,41.20
2023-05-25T18:33:51.954Z,41.20
2023-05-25T18:36:39.838Z,41.20
2023-05-25T18:39:27.648Z,41.30
2023-05-25T18:42:15.182Z,41.30
2023-05-25T18:45:03.179Z,41.30
2023-05-25T18:47:51.331Z,41.60
2023-05-25T18:50:42.104Z,41.30
2023-05-25T18:53:29.885Z,41.40
2023-05-25T18:56:17.673Z,41.40
2023-05-25T18:59:05.186Z,41.40
2023-05-25T19:01:53.283Z,41.50
2023-05-25T19:04:41.320Z,41.50
2023-05-25T19:07:30.589Z,41.50
2023-05-25T19:10:18.519Z,41.50
2023-05-25T19:13:06.488Z,41.50
2023-05-25T19:15:54.354Z,41.60
2023-05-25T19:18:42.255Z,41.60
2023-05-25T19:21:30.047Z,41.60
2023-05-25T19:24:19.382Z,41.60
2023-05-25T19:27:07.304Z,41.60
2023-05-25T19:29:55.211Z,41.60
2023-05-25T19:32:43.211Z,41.70
2023-05-25T19:35:31.089Z,41.70
2023-05-25T19:38:18.957Z,41.80
2023-05-25T19:41:08.198Z,41.80
2023-05-25T19:43:56.084Z,41.80
2023-05-25T19:46:44.369Z,41.80
2023-05-25T19:49:32.275Z,41.80
2023-05-25T19:52:20.213Z,41.80
2023-05-25T19:55:08.474Z,41.90
2023-05-25T19:57:57.645Z,41.90
2023-05-25T20:00:45.300Z,41.90
2023-05-25T20:03:33.439Z,41.90
2023-05-25T20:06:21.325Z,42.00
2023-05-25T20:09:12.467Z,42.10
2023-05-25T20:12:00.158Z,42.10
2023-05-25T20:14:49.638Z,42.20
2023-05-25T20:17:37.523Z,42.20
2023-05-25T20:20:25.584Z,42.30
2023-05-25T20:23:13.491Z,42.40
2023-05-25T20:26:01.367Z,42.40
2023-05-25T20:28:49.203Z,42.40
2023-05-25T20:31:38.438Z,42.40
2023-05-25T20:34:26.386Z,43.00
2023-05-25T20:37:14.353Z,42.50
2023-05-25T20:40:02.404Z,42.50
2023-05-25T20:42:50.252Z,42.50
2023-05-25T20:45:38.554Z,42.60
2023-05-25T20:48:27.734Z,42.60
2023-05-25T20:51:15.586Z,42.70
2023-05-25T20:54:03.440Z,42.70
2023-05-25T20:56:51.781Z,42.70
2023-05-25T20:59:39.430Z,42.80
2023-05-25T21:02:28.517Z,42.90
2023-05-25T21:05:18.382Z,43.00
2023-05-25T21:08:06.149Z,43.10
2023-05-25T21:10:54.035Z,43.20
2023-05-25T21:13:41.722Z,43.20
2023-05-25T21:16:29.687Z,43.30
2023-05-25T21:19:17.640Z,43.30
2023-05-25T21:22:07.084Z,43.30
2023-05-25T21:24:54.867Z,44.00
2023-05-25T21:27:42.826Z,43.40
2023-05-25T21:30:30.754Z,43.40
2023-05-25T21:33:18.458Z,43.50
2023-05-25T21:36:06.331Z,43.50
2023-05-25T21:38:55.592Z,43.50
2023-05-25T21:41:43.611Z,43.50
2023-05-25T21:44:31.361Z,43.50
2023-05-25T21:47:19.396Z,43.50
2023-05-25T21:50:08.092Z,43.60
2023-05-25T21:52:55.655Z,43.60
2023-05-25T21:55:45.348Z,43.60
2023-05-25T21:58:33.393Z,43.50
2023-05-25T22:01:21.277Z,43.80
2023-05-25T22:04:09.305Z,44.00
2023-05-25T22:06:57.170Z,44.00
2023-05-25T22:09:45.035Z,44.00
2023-05-25T22:12:34.432Z,44.00
2023-05-25T22:15:22.448Z,44.00
2023-05-25T22:18:10.278Z,44.00
2023-05-25T22:20:58.284Z,44.00
2023-05-25T22:23:46.268Z,43.80
2023-05-25T22:26:34.165Z,43.90
2023-05-25T22:29:23.416Z,43.90
2023-05-25T22:32:11.146Z,43.90
2023-05-25T22:34:59.015Z,43.90
2023-05-25T22:37:46.552Z,43.80
2023-05-25T22:40:34.375Z,43.80
2023-05-25T22:43:22.144Z,43.80
2023-05-25T22:46:11.422Z,43.70
2023-05-25T22:48:59.232Z,43.70
2023-05-25T22:51:46.943Z,43.60
2023-05-25T22:54:34.696Z,43.60
2023-05-25T22:57:22.555Z,43.60
2023-05-25T23:00:11.051Z,43.60
2023-05-25T23:03:01.664Z,43.60
2023-05-25T23:05:52.163Z,43.50
2023-05-25T23:08:40.040Z,43.50
2023-05-25T23:11:28.069Z,43.50
2023-05-25T23:14:16.073Z,43.40
2023-05-25T23:17:03.935Z,43.50
2023-05-25T23:19:53.592Z,43.40
2023-05-25T23:22:41.806Z,43.40
2023-05-25T23:25:29.734Z,43.40
2023-05-25T23:28:17.989Z,43.40
2023-05-25T23:31:06.077Z,43.40
2023-05-25T23:33:53.887Z,43.30
2023-05-25T23:36:43.674Z,43.30
2023-05-25T23:39:31.245Z,43.30
2023-05-25T23:42:19.064Z,43.30
2023-05-25T23:45:09.336Z,43.30
2023-05-25T23:47:57.216Z,43.30
2023-05-25T23:50:45.372Z,43.30
2023-05-25T23:53:34.768Z,43.30
2023-05-25T23:56:22.813Z,43.30
2023-05-25T23:59:12.156Z,43.30
